sensor_id;sensor_type;location;lat;lon;timestamp;P1;durP1;ratioP1;P2;durP2;ratioP2
47930;SDS011;33697;51.520;9.950;2022-11-12T00:00:02;16.20;;;12.35;;
47930;SDS011;33697;51.520;9.950;2022-11-12T00:02:29;22.45;;;13.65;;
47930;SDS011;33697;51.520;9.950;2022-11-12T00:04:55;26.58;;;13.00;;
47930;SDS011;33697;51.520;9.950;2022-11-12T00:07:21;16.90;;;13.60;;
47930;SDS011;33697;51.520;9.950;2022-11-12T00:09:47;22.85;;;12.63;;
47930;SDS011;33697;51.520;9.950;2022-11-12T00:12:14;23.20;;;15.77;;
47930;SDS011;33697;51.520;9.950;2022-11-12T00:14:40;21.38;;;13.23;;
47930;SDS011;33697;51.520;9.950;2022-11-12T00:17:06;24.73;;;13.57;;
47930;SDS011;33697;51.520;9.950;2022-11-12T00:19:32;21.30;;;13.60;;
47930;SDS011;33697;51.520;9.950;2022-11-12T00:21:59;22.65;;;12.27;;
47930;SDS011;33697;51.520;9.950;2022-11-12T00:24:25;19.38;;;13.52;;
47930;SDS011;33697;51.520;9.950;2022-11-12T00:26:51;19.08;;;12.05;;
47930;SDS011;33697;51.520;9.950;2022-11-12T00:29:18;17.73;;;12.13;;
47930;SDS011;33697;51.520;9.950;2022-11-12T00:31:44;18.25;;;12.57;;
47930;SDS011;33697;51.520;9.950;2022-11-12T00:34:10;17.38;;;13.48;;
47930;SDS011;33697;51.520;9.950;2022-11-12T00:36:36;16.45;;;9.68;;
47930;SDS011;33697;51.520;9.950;2022-11-12T00:39:03;21.00;;;11.65;;
47930;SDS011;33697;51.520;9.950;2022-11-12T00:41:29;14.57;;;11.00;;
47930;SDS011;33697;51.520;9.950;2022-11-12T00:43:56;14.10;;;10.32;;
47930;SDS011;33697;51.520;9.950;2022-11-12T00:46:22;17.45;;;10.00;;
47930;SDS011;33697;51.520;9.950;2022-11-12T00:48:48;14.55;;;9.80;;
47930;SDS011;33697;51.520;9.950;2022-11-12T00:51:14;10.90;;;9.18;;
47930;SDS011;33697;51.520;9.950;2022-11-12T00:53:41;14.18;;;10.65;;
47930;SDS011;33697;51.520;9.950;2022-11-12T00:56:08;11.75;;;9.00;;
47930;SDS011;33697;51.520;9.950;2022-11-12T00:58:34;14.50;;;9.20;;
47930;SDS011;33697;51.520;9.950;2022-11-12T01:01:08;11.70;;;8.93;;
47930;SDS011;33697;51.520;9.950;2022-11-12T01:03:35;12.38;;;9.40;;
47930;SDS011;33697;51.520;9.950;2022-11-12T01:06:12;13.85;;;8.35;;
47930;SDS011;33697;51.520;9.950;2022-11-12T01:08:38;11.20;;;7.93;;
47930;SDS011;33697;51.520;9.950;2022-11-12T01:11:06;10.85;;;7.78;;
47930;SDS011;33697;51.520;9.950;2022-11-12T01:13:33;16.85;;;7.50;;
47930;SDS011;33697;51.520;9.950;2022-11-12T01:16:03;9.25;;;6.85;;
47930;SDS011;33697;51.520;9.950;2022-11-12T01:18:29;14.27;;;7.03;;
47930;SDS011;33697;51.520;9.950;2022-11-12T01:20:58;7.05;;;6.35;;
47930;SDS011;33697;51.520;9.950;2022-11-12T01:23:25;8.20;;;6.30;;
47930;SDS011;33697;51.520;9.950;2022-11-12T01:25:51;8.25;;;6.60;;
47930;SDS011;33697;51.520;9.950;2022-11-12T01:28:17;8.45;;;6.97;;
47930;SDS011;33697;51.520;9.950;2022-11-12T01:30:44;12.18;;;8.88;;
47930;SDS011;33697;51.520;9.950;2022-11-12T01:33:10;13.13;;;7.78;;
47930;SDS011;33697;51.520;9.950;2022-11-12T01:35:36;11.32;;;7.72;;
47930;SDS011;33697;51.520;9.950;2022-11-12T01:38:02;8.27;;;6.47;;
47930;SDS011;33697;51.520;9.950;2022-11-12T01:40:29;10.68;;;7.10;;
47930;SDS011;33697;51.520;9.950;2022-11-12T01:42:56;11.25;;;9.27;;
47930;SDS011;33697;51.520;9.950;2022-11-12T01:45:23;13.98;;;8.32;;
47930;SDS011;33697;51.520;9.950;2022-11-12T01:47:49;12.40;;;8.50;;
47930;SDS011;33697;51.520;9.950;2022-11-12T01:50:24;14.13;;;9.43;;
47930;SDS011;33697;51.520;9.950;2022-11-12T01:52:54;18.20;;;9.45;;
47930;SDS011;33697;51.520;9.950;2022-11-12T01:55:23;9.82;;;8.80;;
47930;SDS011;33697;51.520;9.950;2022-11-12T01:57:51;11.48;;;7.68;;
47930;SDS011;33697;51.520;9.950;2022-11-12T02:00:18;13.38;;;8.07;;
47930;SDS011;33697;51.520;9.950;2022-11-12T02:02:45;10.60;;;8.00;;
47930;SDS011;33697;51.520;9.950;2022-11-12T02:05:13;13.20;;;8.57;;
47930;SDS011;33697;51.520;9.950;2022-11-12T02:07:39;10.27;;;8.35;;
47930;SDS011;33697;51.520;9.950;2022-11-12T02:10:07;9.13;;;7.75;;
47930;SDS011;33697;51.520;9.950;2022-11-12T02:12:34;11.27;;;7.72;;
47930;SDS011;33697;51.520;9.950;2022-11-12T02:15:19;11.48;;;7.90;;
47930;SDS011;33697;51.520;9.950;2022-11-12T02:17:46;10.75;;;7.65;;
47930;SDS011;33697;51.520;9.950;2022-11-12T02:20:12;16.00;;;8.05;;
47930;SDS011;33697;51.520;9.950;2022-11-12T02:22:39;9.05;;;7.95;;
47930;SDS011;33697;51.520;9.950;2022-11-12T02:25:06;9.13;;;6.85;;
47930;SDS011;33697;51.520;9.950;2022-11-12T02:27:32;8.77;;;6.63;;
47930;SDS011;33697;51.520;9.950;2022-11-12T02:29:59;11.70;;;8.38;;
47930;SDS011;33697;51.520;9.950;2022-11-12T02:32:25;13.20;;;7.82;;
47930;SDS011;33697;51.520;9.950;2022-11-12T02:34:51;13.35;;;7.18;;
47930;SDS011;33697;51.520;9.950;2022-11-12T02:37:18;9.80;;;7.80;;
47930;SDS011;33697;51.520;9.950;2022-11-12T02:39:44;8.15;;;6.25;;
47930;SDS011;33697;51.520;9.950;2022-11-12T02:42:10;12.30;;;6.40;;
47930;SDS011;33697;51.520;9.950;2022-11-12T02:44:37;11.93;;;7.05;;
47930;SDS011;33697;51.520;9.950;2022-11-12T02:47:03;13.82;;;7.22;;
47930;SDS011;33697;51.520;9.950;2022-11-12T02:49:29;9.82;;;7.60;;
47930;SDS011;33697;51.520;9.950;2022-11-12T02:51:56;11.93;;;7.63;;
47930;SDS011;33697;51.520;9.950;2022-11-12T02:54:22;8.88;;;7.30;;
47930;SDS011;33697;51.520;9.950;2022-11-12T02:56:48;10.00;;;7.85;;
47930;SDS011;33697;51.520;9.950;2022-11-12T02:59:14;9.07;;;6.82;;
47930;SDS011;33697;51.520;9.950;2022-11-12T03:01:41;9.35;;;6.88;;
47930;SDS011;33697;51.520;9.950;2022-11-12T03:04:07;9.40;;;7.10;;
47930;SDS011;33697;51.520;9.950;2022-11-12T03:06:34;13.23;;;7.32;;
47930;SDS011;33697;51.520;9.950;2022-11-12T03:09:00;10.80;;;6.80;;
47930;SDS011;33697;51.520;9.950;2022-11-12T03:11:26;8.32;;;7.43;;
47930;SDS011;33697;51.520;9.950;2022-11-12T03:13:53;8.82;;;7.38;;
47930;SDS011;33697;51.520;9.950;2022-11-12T03:16:19;9.02;;;8.10;;
47930;SDS011;33697;51.520;9.950;2022-11-12T03:18:45;10.00;;;7.10;;
47930;SDS011;33697;51.520;9.950;2022-11-12T03:21:12;9.20;;;6.15;;
47930;SDS011;33697;51.520;9.950;2022-11-12T03:23:38;9.68;;;7.63;;
47930;SDS011;33697;51.520;9.950;2022-11-12T03:26:04;6.68;;;6.07;;
47930;SDS011;33697;51.520;9.950;2022-11-12T03:28:31;9.52;;;6.90;;
47930;SDS011;33697;51.520;9.950;2022-11-12T03:30:58;8.27;;;6.32;;
47930;SDS011;33697;51.520;9.950;2022-11-12T03:33:24;12.18;;;6.53;;
47930;SDS011;33697;51.520;9.950;2022-11-12T03:35:51;7.57;;;6.78;;
47930;SDS011;33697;51.520;9.950;2022-11-12T03:38:17;7.72;;;6.05;;
47930;SDS011;33697;51.520;9.950;2022-11-12T03:40:43;9.32;;;6.47;;
47930;SDS011;33697;51.520;9.950;2022-11-12T03:43:10;11.85;;;7.32;;
47930;SDS011;33697;51.520;9.950;2022-11-12T03:45:36;9.77;;;6.20;;
47930;SDS011;33697;51.520;9.950;2022-11-12T03:48:02;10.48;;;7.82;;
47930;SDS011;33697;51.520;9.950;2022-11-12T03:50:29;12.73;;;7.97;;
47930;SDS011;33697;51.520;9.950;2022-11-12T03:52:56;8.52;;;7.32;;
47930;SDS011;33697;51.520;9.950;2022-11-12T03:55:24;8.35;;;6.53;;
47930;SDS011;33697;51.520;9.950;2022-11-12T03:57:51;10.55;;;7.15;;
47930;SDS011;33697;51.520;9.950;2022-11-12T04:00:18;10.68;;;6.47;;
47930;SDS011;33697;51.520;9.950;2022-11-12T04:02:44;8.60;;;6.43;;
47930;SDS011;33697;51.520;9.950;2022-11-12T04:05:11;9.45;;;6.85;;
47930;SDS011;33697;51.520;9.950;2022-11-12T04:07:59;8.02;;;6.90;;
47930;SDS011;33697;51.520;9.950;2022-11-12T04:10:44;15.50;;;8.10;;
47930;SDS011;33697;51.520;9.950;2022-11-12T04:13:10;12.18;;;7.97;;
47930;SDS011;33697;51.520;9.950;2022-11-12T04:18:44;13.52;;;8.98;;
47930;SDS011;33697;51.520;9.950;2022-11-12T04:21:30;10.05;;;7.45;;
47930;SDS011;33697;51.520;9.950;2022-11-12T04:24:34;9.57;;;8.30;;
47930;SDS011;33697;51.520;9.950;2022-11-12T04:27:20;10.88;;;7.53;;
47930;SDS011;33697;51.520;9.950;2022-11-12T04:29:47;11.25;;;9.25;;
47930;SDS011;33697;51.520;9.950;2022-11-12T04:32:34;10.35;;;8.55;;
47930;SDS011;33697;51.520;9.950;2022-11-12T04:35:01;14.77;;;8.10;;
47930;SDS011;33697;51.520;9.950;2022-11-12T04:37:28;11.77;;;9.00;;
47930;SDS011;33697;51.520;9.950;2022-11-12T04:39:55;9.30;;;7.78;;
47930;SDS011;33697;51.520;9.950;2022-11-12T04:42:41;9.52;;;7.40;;
47930;SDS011;33697;51.520;9.950;2022-11-12T04:45:26;8.57;;;7.20;;
47930;SDS011;33697;51.520;9.950;2022-11-12T04:47:52;8.32;;;7.45;;
47930;SDS011;33697;51.520;9.950;2022-11-12T04:50:19;10.05;;;6.72;;
47930;SDS011;33697;51.520;9.950;2022-11-12T04:52:45;10.50;;;7.90;;
47930;SDS011;33697;51.520;9.950;2022-11-12T04:55:11;12.35;;;8.27;;
47930;SDS011;33697;51.520;9.950;2022-11-12T04:57:38;10.27;;;7.68;;
47930;SDS011;33697;51.520;9.950;2022-11-12T05:00:04;10.57;;;8.02;;
47930;SDS011;33697;51.520;9.950;2022-11-12T05:02:31;11.90;;;7.70;;
47930;SDS011;33697;51.520;9.950;2022-11-12T05:04:57;8.90;;;8.02;;
47930;SDS011;33697;51.520;9.950;2022-11-12T05:07:23;9.05;;;8.15;;
47930;SDS011;33697;51.520;9.950;2022-11-12T05:09:50;12.25;;;8.82;;
47930;SDS011;33697;51.520;9.950;2022-11-12T05:12:16;9.63;;;8.63;;
47930;SDS011;33697;51.520;9.950;2022-11-12T05:14:42;13.00;;;7.97;;
47930;SDS011;33697;51.520;9.950;2022-11-12T05:17:09;11.65;;;8.32;;
47930;SDS011;33697;51.520;9.950;2022-11-12T05:19:35;14.25;;;9.13;;
47930;SDS011;33697;51.520;9.950;2022-11-12T05:22:01;13.00;;;7.43;;
47930;SDS011;33697;51.520;9.950;2022-11-12T05:24:40;10.27;;;7.93;;
47930;SDS011;33697;51.520;9.950;2022-11-12T05:27:09;9.45;;;8.50;;
47930;SDS011;33697;51.520;9.950;2022-11-12T05:29:35;11.13;;;8.50;;
47930;SDS011;33697;51.520;9.950;2022-11-12T05:32:02;13.10;;;8.63;;
47930;SDS011;33697;51.520;9.950;2022-11-12T05:34:29;11.30;;;9.13;;
47930;SDS011;33697;51.520;9.950;2022-11-12T05:36:55;9.73;;;8.25;;
47930;SDS011;33697;51.520;9.950;2022-11-12T05:39:22;8.40;;;7.32;;
47930;SDS011;33697;51.520;9.950;2022-11-12T05:41:48;12.32;;;9.18;;
47930;SDS011;33697;51.520;9.950;2022-11-12T05:44:35;9.07;;;7.65;;
47930;SDS011;33697;51.520;9.950;2022-11-12T05:47:01;10.77;;;9.68;;
47930;SDS011;33697;51.520;9.950;2022-11-12T05:49:29;9.70;;;7.40;;
47930;SDS011;33697;51.520;9.950;2022-11-12T05:51:55;8.82;;;7.63;;
47930;SDS011;33697;51.520;9.950;2022-11-12T05:54:21;9.02;;;8.20;;
47930;SDS011;33697;51.520;9.950;2022-11-12T05:56:50;9.20;;;8.30;;
47930;SDS011;33697;51.520;9.950;2022-11-12T05:59:17;17.55;;;10.40;;
47930;SDS011;33697;51.520;9.950;2022-11-12T06:01:43;12.18;;;8.80;;
47930;SDS011;33697;51.520;9.950;2022-11-12T06:04:10;8.88;;;8.02;;
47930;SDS011;33697;51.520;9.950;2022-11-12T06:06:37;9.18;;;8.27;;
47930;SDS011;33697;51.520;9.950;2022-11-12T06:09:04;9.77;;;7.72;;
47930;SDS011;33697;51.520;9.950;2022-11-12T06:11:30;9.48;;;6.80;;
47930;SDS011;33697;51.520;9.950;2022-11-12T06:13:57;11.13;;;8.23;;
47930;SDS011;33697;51.520;9.950;2022-11-12T06:16:23;11.10;;;6.57;;
47930;SDS011;33697;51.520;9.950;2022-11-12T06:18:50;7.43;;;6.72;;
47930;SDS011;33697;51.520;9.950;2022-11-12T06:21:16;8.98;;;6.75;;
47930;SDS011;33697;51.520;9.950;2022-11-12T06:26:13;9.20;;;6.70;;
47930;SDS011;33697;51.520;9.950;2022-11-12T06:28:39;12.00;;;7.22;;
47930;SDS011;33697;51.520;9.950;2022-11-12T06:31:06;8.80;;;7.78;;
47930;SDS011;33697;51.520;9.950;2022-11-12T06:33:32;10.45;;;7.95;;
47930;SDS011;33697;51.520;9.950;2022-11-12T06:35:59;9.98;;;7.80;;
47930;SDS011;33697;51.520;9.950;2022-11-12T06:38:31;9.68;;;7.47;;
47930;SDS011;33697;51.520;9.950;2022-11-12T06:40:58;10.98;;;9.30;;
47930;SDS011;33697;51.520;9.950;2022-11-12T06:43:24;10.70;;;8.32;;
47930;SDS011;33697;51.520;9.950;2022-11-12T06:45:52;9.27;;;7.63;;
47930;SDS011;33697;51.520;9.950;2022-11-12T06:48:18;11.48;;;7.43;;
47930;SDS011;33697;51.520;9.950;2022-11-12T06:50:45;8.48;;;7.22;;
47930;SDS011;33697;51.520;9.950;2022-11-12T06:53:11;10.02;;;8.25;;
47930;SDS011;33697;51.520;9.950;2022-11-12T06:55:37;7.93;;;7.10;;
47930;SDS011;33697;51.520;9.950;2022-11-12T06:58:04;8.82;;;7.28;;
47930;SDS011;33697;51.520;9.950;2022-11-12T07:00:30;7.03;;;6.43;;
47930;SDS011;33697;51.520;9.950;2022-11-12T07:02:56;8.88;;;7.13;;
47930;SDS011;33697;51.520;9.950;2022-11-12T07:05:23;9.65;;;7.25;;
47930;SDS011;33697;51.520;9.950;2022-11-12T07:07:49;8.90;;;7.90;;
47930;SDS011;33697;51.520;9.950;2022-11-12T07:10:15;7.85;;;7.15;;
47930;SDS011;33697;51.520;9.950;2022-11-12T07:12:42;8.50;;;6.60;;
47930;SDS011;33697;51.520;9.950;2022-11-12T07:15:08;11.85;;;8.77;;
47930;SDS011;33697;51.520;9.950;2022-11-12T07:17:35;9.98;;;8.98;;
47930;SDS011;33697;51.520;9.950;2022-11-12T07:20:01;8.30;;;7.55;;
47930;SDS011;33697;51.520;9.950;2022-11-12T07:22:31;8.13;;;6.68;;
47930;SDS011;33697;51.520;9.950;2022-11-12T07:24:57;8.23;;;7.43;;
47930;SDS011;33697;51.520;9.950;2022-11-12T07:27:24;13.05;;;8.35;;
47930;SDS011;33697;51.520;9.950;2022-11-12T07:29:50;12.07;;;7.88;;
47930;SDS011;33697;51.520;9.950;2022-11-12T07:32:16;11.10;;;7.20;;
47930;SDS011;33697;51.520;9.950;2022-11-12T07:34:43;10.25;;;7.25;;
47930;SDS011;33697;51.520;9.950;2022-11-12T07:37:09;8.07;;;6.65;;
47930;SDS011;33697;51.520;9.950;2022-11-12T07:39:35;9.07;;;6.43;;
47930;SDS011;33697;51.520;9.950;2022-11-12T07:42:02;11.00;;;7.43;;
47930;SDS011;33697;51.520;9.950;2022-11-12T07:44:28;13.85;;;7.65;;
47930;SDS011;33697;51.520;9.950;2022-11-12T07:46:54;6.05;;;5.50;;
47930;SDS011;33697;51.520;9.950;2022-11-12T07:49:21;7.00;;;6.10;;
47930;SDS011;33697;51.520;9.950;2022-11-12T07:51:47;6.53;;;5.82;;
47930;SDS011;33697;51.520;9.950;2022-11-12T07:54:13;8.35;;;7.47;;
47930;SDS011;33697;51.520;9.950;2022-11-12T07:56:39;9.75;;;6.68;;
47930;SDS011;33697;51.520;9.950;2022-11-12T07:59:06;8.38;;;6.53;;
47930;SDS011;33697;51.520;9.950;2022-11-12T08:01:39;7.25;;;5.60;;
47930;SDS011;33697;51.520;9.950;2022-11-12T08:04:07;7.88;;;7.07;;
47930;SDS011;33697;51.520;9.950;2022-11-12T08:06:34;7.53;;;6.53;;
47930;SDS011;33697;51.520;9.950;2022-11-12T08:09:02;8.27;;;6.05;;
47930;SDS011;33697;51.520;9.950;2022-11-12T08:11:29;9.10;;;6.05;;
47930;SDS011;33697;51.520;9.950;2022-11-12T08:13:56;8.98;;;7.20;;
47930;SDS011;33697;51.520;9.950;2022-11-12T08:16:22;9.25;;;6.93;;
47930;SDS011;33697;51.520;9.950;2022-11-12T08:18:49;6.95;;;6.28;;
47930;SDS011;33697;51.520;9.950;2022-11-12T08:21:16;10.10;;;6.57;;
47930;SDS011;33697;51.520;9.950;2022-11-12T08:23:42;10.10;;;5.55;;
47930;SDS011;33697;51.520;9.950;2022-11-12T08:26:12;10.20;;;6.22;;
47930;SDS011;33697;51.520;9.950;2022-11-12T08:28:39;9.80;;;6.80;;
47930;SDS011;33697;51.520;9.950;2022-11-12T08:31:10;8.40;;;7.13;;
47930;SDS011;33697;51.520;9.950;2022-11-12T08:33:37;11.57;;;7.57;;
47930;SDS011;33697;51.520;9.950;2022-11-12T08:36:03;12.70;;;9.00;;
47930;SDS011;33697;51.520;9.950;2022-11-12T08:38:31;11.90;;;8.38;;
47930;SDS011;33697;51.520;9.950;2022-11-12T08:41:01;12.13;;;7.85;;
47930;SDS011;33697;51.520;9.950;2022-11-12T08:43:28;13.00;;;7.30;;
47930;SDS011;33697;51.520;9.950;2022-11-12T08:45:56;8.10;;;7.28;;
47930;SDS011;33697;51.520;9.950;2022-11-12T08:48:22;14.48;;;8.85;;
47930;SDS011;33697;51.520;9.950;2022-11-12T08:50:49;9.25;;;7.25;;
47930;SDS011;33697;51.520;9.950;2022-11-12T08:53:15;7.55;;;6.65;;
47930;SDS011;33697;51.520;9.950;2022-11-12T08:55:41;9.85;;;7.38;;
47930;SDS011;33697;51.520;9.950;2022-11-12T08:58:08;17.55;;;7.28;;
47930;SDS011;33697;51.520;9.950;2022-11-12T09:00:37;10.70;;;7.80;;
47930;SDS011;33697;51.520;9.950;2022-11-12T09:03:04;9.07;;;7.20;;
47930;SDS011;33697;51.520;9.950;2022-11-12T09:05:34;15.50;;;7.93;;
47930;SDS011;33697;51.520;9.950;2022-11-12T09:08:02;10.48;;;7.80;;
47930;SDS011;33697;51.520;9.950;2022-11-12T09:10:29;12.10;;;7.22;;
47930;SDS011;33697;51.520;9.950;2022-11-12T09:12:55;11.75;;;8.52;;
47930;SDS011;33697;51.520;9.950;2022-11-12T09:15:22;13.50;;;8.18;;
47930;SDS011;33697;51.520;9.950;2022-11-12T09:18:04;14.13;;;8.32;;
47930;SDS011;33697;51.520;9.950;2022-11-12T09:20:30;14.70;;;7.80;;
47930;SDS011;33697;51.520;9.950;2022-11-12T09:22:58;14.93;;;9.25;;
47930;SDS011;33697;51.520;9.950;2022-11-12T09:25:24;12.52;;;9.27;;
47930;SDS011;33697;51.520;9.950;2022-11-12T09:27:51;9.18;;;8.00;;
47930;SDS011;33697;51.520;9.950;2022-11-12T09:30:17;10.65;;;8.88;;
47930;SDS011;33697;51.520;9.950;2022-11-12T09:32:43;13.75;;;8.30;;
47930;SDS011;33697;51.520;9.950;2022-11-12T09:35:10;10.77;;;8.90;;
47930;SDS011;33697;51.520;9.950;2022-11-12T09:37:37;11.70;;;8.43;;
47930;SDS011;33697;51.520;9.950;2022-11-12T09:40:06;11.55;;;7.85;;
47930;SDS011;33697;51.520;9.950;2022-11-12T09:42:36;12.45;;;8.02;;
47930;SDS011;33697;51.520;9.950;2022-11-12T09:45:44;14.35;;;8.88;;
47930;SDS011;33697;51.520;9.950;2022-11-12T09:47:53;12.07;;;9.98;;
47930;SDS011;33697;51.520;9.950;2022-11-12T09:50:24;14.15;;;9.27;;
47930;SDS011;33697;51.520;9.950;2022-11-12T09:52:51;12.70;;;8.50;;
47930;SDS011;33697;51.520;9.950;2022-11-12T09:55:32;15.18;;;9.60;;
47930;SDS011;33697;51.520;9.950;2022-11-12T09:57:59;10.70;;;8.57;;
47930;SDS011;33697;51.520;9.950;2022-11-12T10:00:26;15.50;;;7.97;;
47930;SDS011;33697;51.520;9.950;2022-11-12T10:02:54;11.88;;;8.05;;
47930;SDS011;33697;51.520;9.950;2022-11-12T10:10:39;10.07;;;8.32;;
47930;SDS011;33697;51.520;9.950;2022-11-12T10:18:28;10.88;;;7.38;;
47930;SDS011;33697;51.520;9.950;2022-11-12T10:21:00;12.70;;;8.00;;
47930;SDS011;33697;51.520;9.950;2022-11-12T10:25:56;13.30;;;7.53;;
47930;SDS011;33697;51.520;9.950;2022-11-12T10:28:27;9.05;;;7.45;;
47930;SDS011;33697;51.520;9.950;2022-11-12T10:31:01;9.43;;;7.35;;
47930;SDS011;33697;51.520;9.950;2022-11-12T10:33:31;11.45;;;7.50;;
47930;SDS011;33697;51.520;9.950;2022-11-12T10:36:40;11.63;;;7.47;;
47930;SDS011;33697;51.520;9.950;2022-11-12T10:38:47;8.37;;;7.10;;
47930;SDS011;33697;51.520;9.950;2022-11-12T10:41:33;10.25;;;7.78;;
47930;SDS011;33697;51.520;9.950;2022-11-12T10:44:03;13.48;;;8.00;;
47930;SDS011;33697;51.520;9.950;2022-11-12T10:46:31;8.35;;;7.05;;
47930;SDS011;33697;51.520;9.950;2022-11-12T10:49:01;10.52;;;7.68;;
47930;SDS011;33697;51.520;9.950;2022-11-12T10:51:30;9.93;;;6.93;;
47930;SDS011;33697;51.520;9.950;2022-11-12T10:53:57;8.82;;;7.22;;
47930;SDS011;33697;51.520;9.950;2022-11-12T10:59:09;8.65;;;7.75;;
47930;SDS011;33697;51.520;9.950;2022-11-12T11:01:36;9.63;;;7.72;;
47930;SDS011;33697;51.520;9.950;2022-11-12T11:07:37;15.05;;;7.10;;
47930;SDS011;33697;51.520;9.950;2022-11-12T11:09:53;9.20;;;7.05;;
47930;SDS011;33697;51.520;9.950;2022-11-12T11:12:27;12.80;;;8.55;;
47930;SDS011;33697;51.520;9.950;2022-11-12T11:17:37;13.10;;;9.30;;
47930;SDS011;33697;51.520;9.950;2022-11-12T11:20:05;12.68;;;7.63;;
47930;SDS011;33697;51.520;9.950;2022-11-12T11:22:38;11.07;;;7.53;;
47930;SDS011;33697;51.520;9.950;2022-11-12T11:25:10;10.63;;;8.55;;
47930;SDS011;33697;51.520;9.950;2022-11-12T11:30:11;10.85;;;7.78;;
47930;SDS011;33697;51.520;9.950;2022-11-12T11:35:38;10.13;;;6.93;;
47930;SDS011;33697;51.520;9.950;2022-11-12T11:41:01;17.95;;;6.55;;
47930;SDS011;33697;51.520;9.950;2022-11-12T11:43:33;16.73;;;6.85;;
47930;SDS011;33697;51.520;9.950;2022-11-12T11:48:52;14.05;;;7.43;;
47930;SDS011;33697;51.520;9.950;2022-11-12T12:06:54;8.60;;;5.45;;
47930;SDS011;33697;51.520;9.950;2022-11-12T12:14:30;9.65;;;5.65;;
47930;SDS011;33697;51.520;9.950;2022-11-12T12:22:24;5.50;;;4.53;;
47930;SDS011;33697;51.520;9.950;2022-11-12T12:24:55;5.40;;;4.25;;
47930;SDS011;33697;51.520;9.950;2022-11-12T12:27:28;5.15;;;3.47;;
47930;SDS011;33697;51.520;9.950;2022-11-12T12:30:19;5.35;;;3.63;;
47930;SDS011;33697;51.520;9.950;2022-11-12T12:32:42;5.88;;;3.42;;
47930;SDS011;33697;51.520;9.950;2022-11-12T12:38:05;6.93;;;3.35;;
47930;SDS011;33697;51.520;9.950;2022-11-12T12:40:40;6.03;;;3.05;;
47930;SDS011;33697;51.520;9.950;2022-11-12T12:45:55;5.68;;;3.30;;
47930;SDS011;33697;51.520;9.950;2022-11-12T12:48:29;6.57;;;4.43;;
47930;SDS011;33697;51.520;9.950;2022-11-12T12:50:56;6.70;;;3.47;;
47930;SDS011;33697;51.520;9.950;2022-11-12T12:55:55;12.15;;;3.72;;
47930;SDS011;33697;51.520;9.950;2022-11-12T13:01:04;6.00;;;4.05;;
47930;SDS011;33697;51.520;9.950;2022-11-12T13:08:53;11.30;;;5.10;;
47930;SDS011;33697;51.520;9.950;2022-11-12T13:45:40;6.63;;;5.43;;
47930;SDS011;33697;51.520;9.950;2022-11-12T13:48:07;5.32;;;4.82;;
47930;SDS011;33697;51.520;9.950;2022-11-12T13:50:34;6.72;;;5.15;;
47930;SDS011;33697;51.520;9.950;2022-11-12T13:53:07;7.97;;;4.88;;
47930;SDS011;33697;51.520;9.950;2022-11-12T13:55:33;6.85;;;4.13;;
47930;SDS011;33697;51.520;9.950;2022-11-12T13:58:00;6.68;;;4.43;;
47930;SDS011;33697;51.520;9.950;2022-11-12T14:00:27;6.28;;;4.57;;
47930;SDS011;33697;51.520;9.950;2022-11-12T14:02:57;7.90;;;5.63;;
47930;SDS011;33697;51.520;9.950;2022-11-12T14:05:25;11.75;;;4.95;;
47930;SDS011;33697;51.520;9.950;2022-11-12T14:18:27;6.57;;;4.93;;
47930;SDS011;33697;51.520;9.950;2022-11-12T14:20:56;7.25;;;5.15;;
47930;SDS011;33697;51.520;9.950;2022-11-12T14:23:22;8.48;;;4.40;;
47930;SDS011;33697;51.520;9.950;2022-11-12T14:25:52;5.07;;;4.55;;
47930;SDS011;33697;51.520;9.950;2022-11-12T14:28:29;10.80;;;6.20;;
47930;SDS011;33697;51.520;9.950;2022-11-12T14:30:56;8.93;;;4.70;;
47930;SDS011;33697;51.520;9.950;2022-11-12T14:33:24;7.00;;;5.72;;
47930;SDS011;33697;51.520;9.950;2022-11-12T14:35:58;8.18;;;4.93;;
47930;SDS011;33697;51.520;9.950;2022-11-12T14:38:41;7.70;;;5.18;;
47930;SDS011;33697;51.520;9.950;2022-11-12T14:41:09;6.18;;;5.18;;
47930;SDS011;33697;51.520;9.950;2022-11-12T14:43:37;8.27;;;5.00;;
47930;SDS011;33697;51.520;9.950;2022-11-12T14:46:06;7.85;;;4.95;;
47930;SDS011;33697;51.520;9.950;2022-11-12T14:48:35;10.18;;;6.95;;
47930;SDS011;33697;51.520;9.950;2022-11-12T14:51:04;15.02;;;7.65;;
47930;SDS011;33697;51.520;9.950;2022-11-12T14:53:36;15.73;;;8.48;;
47930;SDS011;33697;51.520;9.950;2022-11-12T14:56:04;15.85;;;9.68;;
47930;SDS011;33697;51.520;9.950;2022-11-12T14:58:32;16.95;;;9.68;;
47930;SDS011;33697;51.520;9.950;2022-11-12T15:01:01;23.15;;;11.52;;
47930;SDS011;33697;51.520;9.950;2022-11-12T15:06:37;13.40;;;8.88;;
47930;SDS011;33697;51.520;9.950;2022-11-12T15:09:04;13.63;;;7.78;;
47930;SDS011;33697;51.520;9.950;2022-11-12T15:11:32;9.10;;;7.50;;
47930;SDS011;33697;51.520;9.950;2022-11-12T15:14:00;14.52;;;7.15;;
47930;SDS011;33697;51.520;9.950;2022-11-12T15:16:30;8.45;;;7.03;;
47930;SDS011;33697;51.520;9.950;2022-11-12T15:19:00;10.80;;;7.13;;
47930;SDS011;33697;51.520;9.950;2022-11-12T15:21:27;13.30;;;8.90;;
47930;SDS011;33697;51.520;9.950;2022-11-12T15:24:13;9.95;;;8.07;;
47930;SDS011;33697;51.520;9.950;2022-11-12T15:26:42;13.40;;;8.70;;
47930;SDS011;33697;51.520;9.950;2022-11-12T15:31:45;10.35;;;7.28;;
47930;SDS011;33697;51.520;9.950;2022-11-12T15:34:17;12.52;;;8.00;;
47930;SDS011;33697;51.520;9.950;2022-11-12T15:36:46;9.73;;;7.90;;
47930;SDS011;33697;51.520;9.950;2022-11-12T15:39:12;9.52;;;7.15;;
47930;SDS011;33697;51.520;9.950;2022-11-12T15:41:39;9.45;;;7.38;;
47930;SDS011;33697;51.520;9.950;2022-11-12T15:44:07;9.38;;;6.20;;
47930;SDS011;33697;51.520;9.950;2022-11-12T15:46:33;8.25;;;5.90;;
47930;SDS011;33697;51.520;9.950;2022-11-12T15:49:00;10.15;;;6.53;;
47930;SDS011;33697;51.520;9.950;2022-11-12T15:51:26;8.93;;;7.30;;
47930;SDS011;33697;51.520;9.950;2022-11-12T15:53:52;12.93;;;7.72;;
47930;SDS011;33697;51.520;9.950;2022-11-12T15:56:19;9.10;;;6.78;;
47930;SDS011;33697;51.520;9.950;2022-11-12T15:58:48;11.55;;;6.80;;
47930;SDS011;33697;51.520;9.950;2022-11-12T16:01:14;9.68;;;6.65;;
47930;SDS011;33697;51.520;9.950;2022-11-12T16:03:41;6.13;;;5.38;;
47930;SDS011;33697;51.520;9.950;2022-11-12T16:06:09;10.32;;;7.90;;
47930;SDS011;33697;51.520;9.950;2022-11-12T16:08:35;9.43;;;6.45;;
47930;SDS011;33697;51.520;9.950;2022-11-12T16:11:02;8.43;;;6.43;;
47930;SDS011;33697;51.520;9.950;2022-11-12T16:13:30;12.40;;;6.45;;
47930;SDS011;33697;51.520;9.950;2022-11-12T16:15:56;14.20;;;8.13;;
47930;SDS011;33697;51.520;9.950;2022-11-12T16:18:22;15.63;;;8.90;;
47930;SDS011;33697;51.520;9.950;2022-11-12T16:20:49;12.98;;;9.00;;
47930;SDS011;33697;51.520;9.950;2022-11-12T16:23:15;18.05;;;10.75;;
47930;SDS011;33697;51.520;9.950;2022-11-12T16:25:42;10.90;;;7.80;;
47930;SDS011;33697;51.520;9.950;2022-11-12T16:28:10;12.65;;;9.18;;
47930;SDS011;33697;51.520;9.950;2022-11-12T16:30:38;12.03;;;9.27;;
47930;SDS011;33697;51.520;9.950;2022-11-12T16:33:04;13.50;;;8.93;;
47930;SDS011;33697;51.520;9.950;2022-11-12T16:35:32;14.77;;;8.27;;
47930;SDS011;33697;51.520;9.950;2022-11-12T16:37:59;16.85;;;9.50;;
47930;SDS011;33697;51.520;9.950;2022-11-12T16:40:26;14.57;;;10.60;;
47930;SDS011;33697;51.520;9.950;2022-11-12T16:42:53;20.60;;;12.85;;
47930;SDS011;33697;51.520;9.950;2022-11-12T16:45:20;17.10;;;11.98;;
47930;SDS011;33697;51.520;9.950;2022-11-12T16:47:50;24.92;;;15.57;;
47930;SDS011;33697;51.520;9.950;2022-11-12T16:50:18;18.35;;;13.48;;
47930;SDS011;33697;51.520;9.950;2022-11-12T16:52:46;22.02;;;14.98;;
47930;SDS011;33697;51.520;9.950;2022-11-12T16:55:13;18.20;;;12.65;;